sensor_id;sensor_type;location;lat;lon;timestamp;pressure;altitude;pressure_sealevel;temperature;humidity
48614;BME280;34408;51.426;5.444;2023-09-18T00:01:18;100507.16;;;21.29;68.15
48614;BME280;34408;51.426;5.444;2023-09-18T00:03:48;100510.19;;;21.28;68.41
48614;BME280;34408;51.426;5.444;2023-09-18T00:06:16;100504.72;;;21.28;68.34
48614;BME280;34408;51.426;5.444;2023-09-18T00:08:44;100504.19;;;21.26;68.12
48614;BME280;34408;51.426;5.444;2023-09-18T00:11:11;100497.91;;;21.25;68.34
48614;BME280;34408;51.426;5.444;2023-09-18T00:13:39;100490.84;;;21.24;68.29
48614;BME280;34408;51.426;5.444;2023-09-18T00:16:07;100485.38;;;21.24;68.25
48614;BME280;34408;51.426;5.444;2023-09-18T00:18:35;100473.94;;;21.22;68.27
48614;BME280;34408;51.426;5.444;2023-09-18T00:21:04;100477.47;;;21.23;68.59
48614;BME280;34408;51.426;5.444;2023-09-18T00:23:33;100473.13;;;21.22;68.37
48614;BME280;34408;51.426;5.444;2023-09-18T00:26:02;100461.66;;;21.20;68.52
48614;BME280;34408;51.426;5.444;2023-09-18T00:28:30;100460.03;;;21.19;68.27
48614;BME280;34408;51.426;5.444;2023-09-18T00:30:58;100454.56;;;21.19;68.32
48614;BME280;34408;51.426;5.444;2023-09-18T00:33:25;100450.22;;;21.18;68.51
48614;BME280;34408;51.426;5.444;2023-09-18T00:35:53;100443.13;;;21.17;68.23
48614;BME280;34408;51.426;5.444;2023-09-18T00:38:22;100439.56;;;21.16;68.48
48614;BME280;34408;51.426;5.444;2023-09-18T00:40:50;100434.09;;;21.16;68.18
48614;BME280;34408;51.426;5.444;2023-09-18T00:43:18;100423.78;;;21.13;68.20
48614;BME280;34408;51.426;5.444;2023-09-18T00:45:48;100430.88;;;21.14;68.17
48614;BME280;34408;51.426;5.444;2023-09-18T00:48:16;100433.91;;;21.12;68.27
48614;BME280;34408;51.426;5.444;2023-09-18T00:50:45;100421.16;;;21.08;68.11
48614;BME280;34408;51.426;5.444;2023-09-18T00:53:14;100422.16;;;21.12;68.28
48614;BME280;34408;51.426;5.444;2023-09-18T00:55:46;100424.09;;;21.11;68.26
48614;BME280;34408;51.426;5.444;2023-09-18T00:58:15;100419.72;;;21.10;68.02
48614;BME280;34408;51.426;5.444;2023-09-18T01:00:44;100423.56;;;21.09;68.17
48614;BME280;34408;51.426;5.444;2023-09-18T01:03:12;100409.09;;;21.09;67.85
48614;BME280;34408;51.426;5.444;2023-09-18T01:05:40;100404.75;;;21.08;67.87
48614;BME280;34408;51.426;5.444;2023-09-18T01:08:08;100400.41;;;21.07;67.83
48614;BME280;34408;51.426;5.444;2023-09-18T01:10:40;100396.84;;;21.06;67.82
48614;BME280;34408;51.426;5.444;2023-09-18T01:13:20;100384.00;;;21.07;67.51
48614;BME280;34408;51.426;5.444;2023-09-18T01:15:54;100377.72;;;21.06;67.45
48614;BME280;34408;51.426;5.444;2023-09-18T01:18:25;100371.16;;;21.07;67.32
48614;BME280;34408;51.426;5.444;2023-09-18T01:20:53;100375.81;;;21.07;67.56
48614;BME280;34408;51.426;5.444;2023-09-18T01:23:22;100375.81;;;21.07;67.41
48614;BME280;34408;51.426;5.444;2023-09-18T01:25:50;100372.25;;;21.06;67.38
48614;BME280;34408;51.426;5.444;2023-09-18T01:28:18;100379.66;;;21.06;67.53
48614;BME280;34408;51.426;5.444;2023-09-18T01:30:46;100371.75;;;21.04;67.46
48614;BME280;34408;51.426;5.444;2023-09-18T01:33:14;100370.66;;;21.05;67.39
48614;BME280;34408;51.426;5.444;2023-09-18T01:35:44;100371.44;;;21.06;67.46
48614;BME280;34408;51.426;5.444;2023-09-18T01:38:13;100379.66;;;21.06;67.57
48614;BME280;34408;51.426;5.444;2023-09-18T01:40:42;100373.38;;;21.05;67.63
48614;BME280;34408;51.426;5.444;2023-09-18T01:43:11;100369.84;;;21.05;67.46
48614;BME280;34408;51.426;5.444;2023-09-18T01:45:39;100358.41;;;21.03;67.24
48614;BME280;34408;51.426;5.444;2023-09-18T01:48:07;100374.50;;;21.04;67.41
48614;BME280;34408;51.426;5.444;2023-09-18T01:50:36;100372.88;;;21.03;67.20
48614;BME280;34408;51.426;5.444;2023-09-18T01:53:06;100367.41;;;21.03;67.23
48614;BME280;34408;51.426;5.444;2023-09-18T01:55:35;100363.88;;;21.03;67.13
48614;BME280;34408;51.426;5.444;2023-09-18T01:58:04;100357.59;;;21.02;67.24
48614;BME280;34408;51.426;5.444;2023-09-18T02:00:33;100358.69;;;21.01;67.43
48614;BME280;34408;51.426;5.444;2023-09-18T02:03:01;100350.81;;;21.00;67.40
48614;BME280;34408;51.426;5.444;2023-09-18T02:05:40;100348.06;;;21.00;67.49
48614;BME280;34408;51.426;5.444;2023-09-18T02:08:08;100350.00;;;20.99;67.36
48614;BME280;34408;51.426;5.444;2023-09-18T02:10:36;100345.66;;;20.98;67.33
48614;BME280;34408;51.426;5.444;2023-09-18T02:13:05;100339.38;;;20.98;67.63
48614;BME280;34408;51.426;5.444;2023-09-18T02:15:33;100351.41;;;20.97;67.44
48614;BME280;34408;51.426;5.444;2023-09-18T02:18:02;100348.19;;;20.95;67.43
48614;BME280;34408;51.426;5.444;2023-09-18T02:20:30;100342.72;;;20.95;67.37
48614;BME280;34408;51.426;5.444;2023-09-18T02:22:57;100340.78;;;20.95;67.59
48614;BME280;34408;51.426;5.444;2023-09-18T02:25:25;100332.91;;;20.94;67.62
48614;BME280;34408;51.426;5.444;2023-09-18T02:27:53;100324.69;;;20.94;67.74
48614;BME280;34408;51.426;5.444;2023-09-18T02:30:23;100328.53;;;20.93;67.89
48614;BME280;34408;51.426;5.444;2023-09-18T02:32:51;100321.47;;;20.92;67.72
48614;BME280;34408;51.426;5.444;2023-09-18T02:35:19;100323.38;;;20.91;67.81
48614;BME280;34408;51.426;5.444;2023-09-18T02:37:47;100330.78;;;20.91;67.95
48614;BME280;34408;51.426;5.444;2023-09-18T02:40:15;100323.69;;;20.90;68.12
48614;BME280;34408;51.426;5.444;2023-09-18T02:42:42;100334.63;;;20.90;68.03
48614;BME280;34408;51.426;5.444;2023-09-18T02:45:10;100305.69;;;20.89;68.09
48614;BME280;34408;51.426;5.444;2023-09-18T02:47:40;100296.97;;;20.87;67.92
48614;BME280;34408;51.426;5.444;2023-09-18T02:50:09;100292.13;;;20.84;68.20
48614;BME280;34408;51.426;5.444;2023-09-18T02:52:38;100282.50;;;20.86;68.18
48614;BME280;34408;51.426;5.444;2023-09-18T02:55:06;100270.78;;;20.86;68.12
48614;BME280;34408;51.426;5.444;2023-09-18T02:57:36;100270.28;;;20.84;68.10
48614;BME280;34408;51.426;5.444;2023-09-18T03:00:05;100268.34;;;20.84;68.22
48614;BME280;34408;51.426;5.444;2023-09-18T03:02:33;100265.63;;;20.84;68.43
48614;BME280;34408;51.426;5.444;2023-09-18T03:05:04;100263.19;;;20.83;68.12
48614;BME280;34408;51.426;5.444;2023-09-18T03:07:32;100260.47;;;20.83;68.21
48614;BME280;34408;51.426;5.444;2023-09-18T03:10:00;100249.53;;;20.83;68.29
48614;BME280;34408;51.426;5.444;2023-09-18T03:12:28;100243.25;;;20.82;68.20
48614;BME280;34408;51.426;5.444;2023-09-18T03:14:56;100242.44;;;20.82;68.19
48614;BME280;34408;51.426;5.444;2023-09-18T03:17:24;100255.28;;;20.81;68.22
48614;BME280;34408;51.426;5.444;2023-09-18T03:19:52;100274.41;;;20.81;68.04
48614;BME280;34408;51.426;5.444;2023-09-18T03:22:21;100264.31;;;20.82;67.91
48614;BME280;34408;51.426;5.444;2023-09-18T03:24:49;100272.50;;;20.82;67.76
48614;BME280;34408;51.426;5.444;2023-09-18T03:27:17;100293.53;;;20.81;67.60
48614;BME280;34408;51.426;5.444;2023-09-18T03:29:44;100292.44;;;20.82;67.79
48614;BME280;34408;51.426;5.444;2023-09-18T03:32:12;100268.97;;;20.81;67.61
48614;BME280;34408;51.426;5.444;2023-09-18T03:34:40;100270.56;;;20.82;67.74
48614;BME280;34408;51.426;5.444;2023-09-18T03:37:08;100266.22;;;20.81;67.79
48614;BME280;34408;51.426;5.444;2023-09-18T03:39:38;100273.94;;;20.79;67.73
48614;BME280;34408;51.426;5.444;2023-09-18T03:42:06;100265.41;;;20.80;67.66
48614;BME280;34408;51.426;5.444;2023-09-18T03:44:34;100264.63;;;20.80;67.78
48614;BME280;34408;51.426;5.444;2023-09-18T03:47:01;100278.28;;;20.80;67.55
48614;BME280;34408;51.426;5.444;2023-09-18T03:49:30;100278.28;;;20.80;67.53
48614;BME280;34408;51.426;5.444;2023-09-18T03:51:57;100281.03;;;20.80;67.58
48614;BME280;34408;51.426;5.444;2023-09-18T03:54:25;100260.28;;;20.79;67.66
48614;BME280;34408;51.426;5.444;2023-09-18T03:56:55;100260.91;;;20.76;67.54
48614;BME280;34408;51.426;5.444;2023-09-18T03:59:22;100257.56;;;20.79;67.63
48614;BME280;34408;51.426;5.444;2023-09-18T04:01:50;100265.56;;;20.75;67.74
48614;BME280;34408;51.426;5.444;2023-09-18T04:04:18;100289.81;;;20.77;67.74
48614;BME280;34408;51.426;5.444;2023-09-18T04:06:46;100289.81;;;20.77;67.85
48614;BME280;34408;51.426;5.444;2023-09-18T04:09:14;100291.75;;;20.76;67.93
48614;BME280;34408;51.426;5.444;2023-09-18T04:11:42;100286.59;;;20.75;67.96
48614;BME280;34408;51.426;5.444;2023-09-18T04:14:11;100273.75;;;20.75;68.11
48614;BME280;34408;51.426;5.444;2023-09-18T04:16:39;100267.78;;;20.73;68.09
48614;BME280;34408;51.426;5.444;2023-09-18T04:19:09;100254.72;;;20.70;68.39
48614;BME280;34408;51.426;5.444;2023-09-18T04:21:37;100256.03;;;20.73;68.32
48614;BME280;34408;51.426;5.444;2023-09-18T04:24:05;100248.97;;;20.72;68.32
48614;BME280;34408;51.426;5.444;2023-09-18T04:26:33;100247.34;;;20.71;68.27
48614;BME280;34408;51.426;5.444;2023-09-18T04:29:01;100252.00;;;20.70;68.33
48614;BME280;34408;51.426;5.444;2023-09-18T04:31:31;100247.34;;;20.71;68.35
48614;BME280;34408;51.426;5.444;2023-09-18T04:33:59;100242.19;;;20.69;68.61
48614;BME280;34408;51.426;5.444;2023-09-18T04:36:27;100229.66;;;20.68;68.42
48614;BME280;34408;51.426;5.444;2023-09-18T04:38:55;100223.06;;;20.69;68.67
48614;BME280;34408;51.426;5.444;2023-09-18T04:41:22;100198.00;;;20.67;68.39
48614;BME280;34408;51.426;5.444;2023-09-18T04:43:50;100197.19;;;20.67;68.61
48614;BME280;34408;51.426;5.444;2023-09-18T04:46:18;100202.63;;;20.67;68.47
48614;BME280;34408;51.426;5.444;2023-09-18T04:48:47;100194.44;;;20.67;68.58
48614;BME280;34408;51.426;5.444;2023-09-18T04:51:15;100198.00;;;20.67;68.56
48614;BME280;34408;51.426;5.444;2023-09-18T04:53:43;100193.63;;;20.66;68.49
48614;BME280;34408;51.426;5.444;2023-09-18T04:56:11;100193.63;;;20.66;68.55
48614;BME280;34408;51.426;5.444;2023-09-18T04:58:39;100199.91;;;20.67;68.58
48614;BME280;34408;51.426;5.444;2023-09-18T05:01:07;100199.09;;;20.66;68.60
48614;BME280;34408;51.426;5.444;2023-09-18T05:03:35;100190.09;;;20.66;68.46
48614;BME280;34408;51.426;5.444;2023-09-18T05:06:08;100193.94;;;20.65;68.54
48614;BME280;34408;51.426;5.444;2023-09-18T05:08:36;100193.13;;;20.64;68.65
48614;BME280;34408;51.426;5.444;2023-09-18T05:11:04;100200.53;;;20.64;68.53
48614;BME280;34408;51.426;5.444;2023-09-18T05:13:32;100196.97;;;20.63;68.58
48614;BME280;34408;51.426;5.444;2023-09-18T05:15:59;100206.78;;;20.64;68.54
48614;BME280;34408;51.426;5.444;2023-09-18T05:18:27;100203.25;;;20.64;68.56
48614;BME280;34408;51.426;5.444;2023-09-18T05:20:55;100194.25;;;20.63;68.54
48614;BME280;34408;51.426;5.444;2023-09-18T05:23:26;100193.44;;;20.63;68.41
48614;BME280;34408;51.426;5.444;2023-09-18T05:25:53;100195.88;;;20.64;68.49
48614;BME280;34408;51.426;5.444;2023-09-18T05:28:21;100204.66;;;20.61;68.46
48614;BME280;34408;51.426;5.444;2023-09-18T05:30:49;100195.88;;;20.64;68.39
48614;BME280;34408;51.426;5.444;2023-09-18T05:33:17;100196.97;;;20.63;68.51
48614;BME280;34408;51.426;5.444;2023-09-18T05:35:46;100203.56;;;20.62;68.31
48614;BME280;34408;51.426;5.444;2023-09-18T05:38:15;100201.94;;;20.61;68.61
48614;BME280;34408;51.426;5.444;2023-09-18T05:40:46;100195.66;;;20.61;68.46
48614;BME280;34408;51.426;5.444;2023-09-18T05:43:14;100200.31;;;20.60;68.43
48614;BME280;34408;51.426;5.444;2023-09-18T05:45:41;100211.25;;;20.60;68.46
48614;BME280;34408;51.426;5.444;2023-09-18T05:48:10;100219.44;;;20.60;68.32
48614;BME280;34408;51.426;5.444;2023-09-18T05:50:38;100217.72;;;20.64;68.37
48614;BME280;34408;51.426;5.444;2023-09-18T05:53:07;100213.66;;;20.62;68.22
48614;BME280;34408;51.426;5.444;2023-09-18T05:55:35;100224.59;;;20.62;68.47
48614;BME280;34408;51.426;5.444;2023-09-18T05:58:05;100217.50;;;20.61;68.47
48614;BME280;34408;51.426;5.444;2023-09-18T06:00:34;100221.16;;;20.70;68.13
48614;BME280;34408;51.426;5.444;2023-09-18T06:03:03;100235.09;;;20.68;68.14
48614;BME280;34408;51.426;5.444;2023-09-18T06:05:33;100232.47;;;20.63;68.20
48614;BME280;34408;51.426;5.444;2023-09-18T06:08:01;100245.53;;;20.66;68.17
48614;BME280;34408;51.426;5.444;2023-09-18T06:10:29;100241.69;;;20.67;68.08
48614;BME280;34408;51.426;5.444;2023-09-18T06:12:57;100235.50;;;20.62;68.76
48614;BME280;34408;51.426;5.444;2023-09-18T06:15:32;100232.28;;;20.60;68.74
48614;BME280;34408;51.426;5.444;2023-09-18T06:18:00;100239.16;;;20.57;68.84
48614;BME280;34408;51.426;5.444;2023-09-18T06:20:28;100239.44;;;20.56;68.70
48614;BME280;34408;51.426;5.444;2023-09-18T06:22:56;100246.53;;;20.57;68.88
48614;BME280;34408;51.426;5.444;2023-09-18T06:25:24;100257.75;;;20.55;68.69
48614;BME280;34408;51.426;5.444;2023-09-18T06:27:52;100254.53;;;20.53;68.85
48614;BME280;34408;51.426;5.444;2023-09-18T06:30:20;100256.94;;;20.55;68.79
48614;BME280;34408;51.426;5.444;2023-09-18T06:32:49;100263.53;;;20.54;68.65
48614;BME280;34408;51.426;5.444;2023-09-18T06:35:19;100264.63;;;20.53;68.74
48614;BME280;34408;51.426;5.444;2023-09-18T06:37:47;100270.00;;;20.58;68.89
48614;BME280;34408;51.426;5.444;2023-09-18T06:40:15;100260.78;;;20.54;68.48
48614;BME280;34408;51.426;5.444;2023-09-18T06:42:43;100264.72;;;20.61;68.54
48614;BME280;34408;51.426;5.444;2023-09-18T06:45:11;100275.75;;;20.56;68.68
48614;BME280;34408;51.426;5.444;2023-09-18T06:47:40;100271.91;;;20.71;68.48
48614;BME280;34408;51.426;5.444;2023-09-18T06:50:10;100282.94;;;20.66;68.57
48614;BME280;34408;51.426;5.444;2023-09-18T06:52:39;100286.69;;;20.56;68.68
48614;BME280;34408;51.426;5.444;2023-09-18T06:55:08;100281.81;;;20.53;68.68
48614;BME280;34408;51.426;5.444;2023-09-18T06:57:36;100288.38;;;20.52;69.11
48614;BME280;34408;51.426;5.444;2023-09-18T07:00:04;100288.69;;;20.51;68.67
48614;BME280;34408;51.426;5.444;2023-09-18T07:02:32;100300.13;;;20.53;68.65
48614;BME280;34408;51.426;5.444;2023-09-18T07:05:01;100289.50;;;20.51;68.66
48614;BME280;34408;51.426;5.444;2023-09-18T07:07:30;100295.25;;;20.50;68.76
48614;BME280;34408;51.426;5.444;2023-09-18T07:09:58;100293.63;;;20.49;68.72
48614;BME280;34408;51.426;5.444;2023-09-18T07:12:29;100298.28;;;20.48;68.75
48614;BME280;34408;51.426;5.444;2023-09-18T07:15:01;100296.66;;;20.47;68.71
48614;BME280;34408;51.426;5.444;2023-09-18T07:17:31;100313.06;;;20.47;68.76
48614;BME280;34408;51.426;5.444;2023-09-18T07:20:00;100306.78;;;20.46;68.79
48614;BME280;34408;51.426;5.444;2023-09-18T07:22:38;100312.47;;;20.64;68.32
48614;BME280;34408;51.426;5.444;2023-09-18T07:25:06;100306.09;;;20.55;68.48
48614;BME280;34408;51.426;5.444;2023-09-18T07:27:34;100322.25;;;20.51;68.58
48614;BME280;34408;51.426;5.444;2023-09-18T07:30:06;100325.59;;;20.48;68.42
48614;BME280;34408;51.426;5.444;2023-09-18T07:32:34;100325.28;;;20.50;68.74
48614;BME280;34408;51.426;5.444;2023-09-18T07:35:06;100321.25;;;20.61;68.33
48614;BME280;34408;51.426;5.444;2023-09-18T07:37:34;100318.72;;;20.51;68.52
48614;BME280;34408;51.426;5.444;2023-09-18T07:40:06;100323.38;;;20.50;68.44
48614;BME280;34408;51.426;5.444;2023-09-18T07:42:34;100322.88;;;20.48;68.59
48614;BME280;34408;51.426;5.444;2023-09-18T07:45:03;100326.91;;;20.51;68.61
48614;BME280;34408;51.426;5.444;2023-09-18T07:47:31;100328.94;;;20.59;68.53
48614;BME280;34408;51.426;5.444;2023-09-18T07:49:59;100326.31;;;20.54;68.40
48614;BME280;34408;51.426;5.444;2023-09-18T07:52:27;100334.00;;;20.52;68.37
48614;BME280;34408;51.426;5.444;2023-09-18T07:54:55;100325.81;;;20.52;68.39
48614;BME280;34408;51.426;5.444;2023-09-18T07:57:26;100316.81;;;20.51;68.33
48614;BME280;34408;51.426;5.444;2023-09-18T07:59:54;100320.63;;;20.50;68.52
48614;BME280;34408;51.426;5.444;2023-09-18T08:02:23;100317.41;;;20.62;68.30
48614;BME280;34408;51.426;5.444;2023-09-18T08:04:52;100293.53;;;20.40;68.53
48614;BME280;34408;51.426;5.444;2023-09-18T08:07:19;100323.59;;;20.67;68.44
48614;BME280;34408;51.426;5.444;2023-09-18T08:09:47;100316.63;;;20.61;68.19
48614;BME280;34408;51.426;5.444;2023-09-18T08:12:15;100325.72;;;20.57;68.22
48614;BME280;34408;51.426;5.444;2023-09-18T08:14:45;100324.38;;;20.54;68.33
48614;BME280;34408;51.426;5.444;2023-09-18T08:17:13;100333.69;;;20.53;68.40
48614;BME280;34408;51.426;5.444;2023-09-18T08:19:41;100332.28;;;20.56;68.32
48614;BME280;34408;51.426;5.444;2023-09-18T08:22:10;100336.13;;;20.55;68.19
48614;BME280;34408;51.426;5.444;2023-09-18T08:24:41;100343.41;;;20.59;68.42
48614;BME280;34408;51.426;5.444;2023-09-18T08:27:13;100349.00;;;20.68;68.18
48614;BME280;34408;51.426;5.444;2023-09-18T08:29:44;100342.09;;;20.57;68.04
48614;BME280;34408;51.426;5.444;2023-09-18T08:32:13;100350.00;;;20.86;67.97
48614;BME280;34408;51.426;5.444;2023-09-18T08:34:41;100359.59;;;20.69;67.62
48614;BME280;34408;51.426;5.444;2023-09-18T08:37:09;100361.34;;;20.79;68.15
48614;BME280;34408;51.426;5.444;2023-09-18T08:39:36;100373.97;;;20.75;67.59
48614;BME280;34408;51.426;5.444;2023-09-18T08:42:05;100368.63;;;20.97;68.09
48614;BME280;34408;51.426;5.444;2023-09-18T08:44:38;100371.97;;;21.08;67.10
48614;BME280;34408;51.426;5.444;2023-09-18T08:47:08;100369.72;;;20.83;67.58
48614;BME280;34408;51.426;5.444;2023-09-18T08:49:38;100365.78;;;20.89;67.48
48614;BME280;34408;51.426;5.444;2023-09-18T08:52:08;100358.81;;;20.96;67.37
48614;BME280;34408;51.426;5.444;2023-09-18T08:54:36;100360.00;;;21.04;67.62
48614;BME280;34408;51.426;5.444;2023-09-18T08:57:04;100354.56;;;21.04;67.05
48614;BME280;34408;51.426;5.444;2023-09-18T08:59:35;100362.22;;;20.88;67.84
48614;BME280;34408;51.426;5.444;2023-09-18T09:02:03;100357.91;;;21.28;66.44
48614;BME280;34408;51.426;5.444;2023-09-18T09:04:32;100352.63;;;21.04;67.23
48614;BME280;34408;51.426;5.444;2023-09-18T09:07:00;100358.22;;;21.27;66.63
48614;BME280;34408;51.426;5.444;2023-09-18T09:09:28;100362.06;;;21.26;66.67
48614;BME280;34408;51.426;5.444;2023-09-18T09:11:57;100354.25;;;21.47;66.45
48614;BME280;34408;51.426;5.444;2023-09-18T09:14:25;100367.03;;;21.24;66.81
48614;BME280;34408;51.426;5.444;2023-09-18T09:16:56;100369.63;;;21.15;67.24
48614;BME280;34408;51.426;5.444;2023-09-18T09:19:29;100380.34;;;21.11;67.38
48614;BME280;34408;51.426;5.444;2023-09-18T09:21:59;100374.19;;;21.20;67.48
48614;BME280;34408;51.426;5.444;2023-09-18T09:24:40;100374.41;;;21.23;66.91
48614;BME280;34408;51.426;5.444;2023-09-18T09:27:08;100364.88;;;21.21;67.26
48614;BME280;34408;51.426;5.444;2023-09-18T09:29:37;100382.09;;;21.21;66.98
48614;BME280;34408;51.426;5.444;2023-09-18T09:32:15;100378.34;;;21.17;67.52
48614;BME280;34408;51.426;5.444;2023-09-18T09:34:44;100380.38;;;21.39;66.93
48614;BME280;34408;51.426;5.444;2023-09-18T09:37:14;100385.25;;;21.28;67.24
48614;BME280;34408;51.426;5.444;2023-09-18T09:39:49;100389.78;;;21.47;67.04
48614;BME280;34408;51.426;5.444;2023-09-18T09:42:18;100387.28;;;21.36;66.96
48614;BME280;34408;51.426;5.444;2023-09-18T09:45:01;100378.16;;;21.41;67.13
48614;BME280;34408;51.426;5.444;2023-09-18T09:47:33;100366.31;;;21.46;66.87
48614;BME280;34408;51.426;5.444;2023-09-18T09:50:06;100370.56;;;21.38;67.46
48614;BME280;34408;51.426;5.444;2023-09-18T09:52:41;100352.13;;;21.16;67.61
48614;BME280;34408;51.426;5.444;2023-09-18T09:55:21;100371.19;;;21.35;67.21
48614;BME280;34408;51.426;5.444;2023-09-18T09:57:51;100377.06;;;21.28;67.23
48614;BME280;34408;51.426;5.444;2023-09-18T10:00:20;100381.09;;;21.44;67.16
48614;BME280;34408;51.426;5.444;2023-09-18T10:02:58;100384.63;;;21.59;66.71
48614;BME280;34408;51.426;5.444;2023-09-18T10:05:29;100397.84;;;21.79;66.15
48614;BME280;34408;51.426;5.444;2023-09-18T10:08:04;100398.28;;;21.59;66.59
48614;BME280;34408;51.426;5.444;2023-09-18T10:10:36;100410.94;;;21.68;66.32
48614;BME280;34408;51.426;5.444;2023-09-18T10:13:09;100403.66;;;21.64;66.27
48614;BME280;34408;51.426;5.444;2023-09-18T10:15:39;100406.78;;;21.71;66.24
48614;BME280;34408;51.426;5.444;2023-09-18T10:18:28;100411.63;;;21.74;65.95
48614;BME280;34408;51.426;5.444;2023-09-18T10:21:10;100411.13;;;21.72;66.13
48614;BME280;34408;51.426;5.444;2023-09-18T10:23:53;100400.22;;;21.58;66.58
48614;BME280;34408;51.426;5.444;2023-09-18T10:26:25;100399.09;;;21.46;67.30
48614;BME280;34408;51.426;5.444;2023-09-18T10:28:56;100397.78;;;21.57;66.60
48614;BME280;34408;51.426;5.444;2023-09-18T10:31:26;100399.81;;;21.51;66.94
48614;BME280;34408;51.426;5.444;2023-09-18T10:33:57;100410.16;;;21.54;67.06
48614;BME280;34408;51.426;5.444;2023-09-18T10:36:25;100408.41;;;21.72;66.31
48614;BME280;34408;51.426;5.444;2023-09-18T10:38:56;100401.41;;;21.66;66.49
48614;BME280;34408;51.426;5.444;2023-09-18T10:41:26;100391.81;;;21.55;67.09
48614;BME280;34408;51.426;5.444;2023-09-18T10:43:56;100408.22;;;21.55;66.73
48614;BME280;34408;51.426;5.444;2023-09-18T10:46:24;100405.47;;;21.55;66.79
48614;BME280;34408;51.426;5.444;2023-09-18T10:48:54;100403.78;;;21.45;67.39
48614;BME280;34408;51.426;5.444;2023-09-18T10:51:22;100405.19;;;21.42;67.37
48614;BME280;34408;51.426;5.444;2023-09-18T10:53:51;100395.59;;;21.81;66.49
48614;BME280;34408;51.426;5.444;2023-09-18T10:56:21;100391.91;;;21.63;66.46
48614;BME280;34408;51.426;5.444;2023-09-18T10:58:56;100387.34;;;21.59;66.64
48614;BME280;34408;51.426;5.444;2023-09-18T11:01:25;100391.72;;;21.46;67.21
48614;BME280;34408;51.426;5.444;2023-09-18T11:03:57;100390.00;;;21.50;67.42
48614;BME280;34408;51.426;5.444;2023-09-18T11:06:28;100389.19;;;21.50;67.46
48614;BME280;34408;51.426;5.444;2023-09-18T11:09:00;100382.06;;;21.62;66.66
48614;BME280;34408;51.426;5.444;2023-09-18T11:11:32;100387.28;;;21.86;65.50
48614;BME280;34408;51.426;5.444;2023-09-18T11:14:02;100397.34;;;21.77;65.88
48614;BME280;34408;51.426;5.444;2023-09-18T11:16:35;100389.38;;;21.67;66.09
48614;BME280;34408;51.426;5.444;2023-09-18T11:19:09;100391.91;;;21.63;66.10
48614;BME280;34408;51.426;5.444;2023-09-18T11:21:38;100384.84;;;21.49;66.65
48614;BME280;34408;51.426;5.444;2023-09-18T11:24:08;100390.91;;;21.59;66.29
48614;BME280;34408;51.426;5.444;2023-09-18T11:26:40;100403.13;;;21.75;65.64
48614;BME280;34408;51.426;5.444;2023-09-18T11:29:10;100404.81;;;21.85;65.62
48614;BME280;34408;51.426;5.444;2023-09-18T11:31:45;100405.25;;;21.79;65.67
48614;BME280;34408;51.426;5.444;2023-09-18T11:34:15;100409.47;;;21.85;65.34
48614;BME280;34408;51.426;5.444;2023-09-18T11:36:43;100410.19;;;21.90;65.17
48614;BME280;34408;51.426;5.444;2023-09-18T11:39:12;100397.44;;;21.86;65.04
48614;BME280;34408;51.426;5.444;2023-09-18T11:41:42;100391.06;;;21.76;64.78
48614;BME280;34408;51.426;5.444;2023-09-18T11:44:33;100381.31;;;21.84;64.38
48614;BME280;34408;51.426;5.444;2023-09-18T11:47:10;100374.34;;;21.78;64.84
48614;BME280;34408;51.426;5.444;2023-09-18T11:49:49;100379.13;;;21.72;64.69
48614;BME280;34408;51.426;5.444;2023-09-18T11:52:22;100382.47;;;21.69;64.47
48614;BME280;34408;51.426;5.444;2023-09-18T11:54:51;100375.97;;;21.79;64.18
48614;BME280;34408;51.426;5.444;2023-09-18T11:57:21;100376.78;;;21.80;64.44
48614;BME280;34408;51.426;5.444;2023-09-18T11:59:48;100368.53;;;21.93;63.59
48614;BME280;34408;51.426;5.444;2023-09-18T12:02:25;100377.84;;;21.92;63.65
48614;BME280;34408;51.426;5.444;2023-09-18T12:04:54;100379.16;;;21.95;63.52
48614;BME280;34408;51.426;5.444;2023-09-18T12:07:23;100374.09;;;21.88;63.81
48614;BME280;34408;51.426;5.444;2023-09-18T12:09:51;100371.38;;;21.88;63.63
48614;BME280;34408;51.426;5.444;2023-09-18T12:12:22;100368.63;;;21.88;63.94
48614;BME280;34408;51.426;5.444;2023-09-18T12:14:52;100371.19;;;21.85;64.48
48614;BME280;34408;51.426;5.444;2023-09-18T12:17:20;100367.75;;;21.79;64.63
48614;BME280;34408;51.426;5.444;2023-09-18T12:19:52;100365.81;;;21.80;64.16
48614;BME280;34408;51.426;5.444;2023-09-18T12:22:25;100361.47;;;21.79;64.31
48614;BME280;34408;51.426;5.444;2023-09-18T12:24:53;100360.06;;;21.81;63.02
48614;BME280;34408;51.426;5.444;2023-09-18T12:27:22;100354.84;;;21.93;63.83
48614;BME280;34408;51.426;5.444;2023-09-18T12:29:53;100353.59;;;21.99;63.60
48614;BME280;34408;51.426;5.444;2023-09-18T12:32:23;100364.78;;;22.03;63.43
48614;BME280;34408;51.426;5.444;2023-09-18T12:34:51;100337.50;;;21.98;63.26
48614;BME280;34408;51.426;5.444;2023-09-18T12:37:21;100354.50;;;22.08;63.55
48614;BME280;34408;51.426;5.444;2023-09-18T12:39:48;100362.41;;;22.10;63.73
48614;BME280;34408;51.426;5.444;2023-09-18T12:42:18;100356.13;;;22.10;63.18
48614;BME280;34408;51.426;5.444;2023-09-18T12:44:48;100356.00;;;22.15;63.23
48614;BME280;34408;51.426;5.444;2023-09-18T12:47:16;100370.69;;;22.19;62.75
48614;BME280;34408;51.426;5.444;2023-09-18T12:49:44;100334.03;;;22.06;63.54
48614;BME280;34408;51.426;5.444;2023-09-18T12:52:13;100349.59;;;22.19;62.98
48614;BME280;34408;51.426;5.444;2023-09-18T12:54:50;100335.72;;;22.16;63.43
48614;BME280;34408;51.426;5.444;2023-09-18T12:57:21;100345.88;;;22.15;63.83
48614;BME280;34408;51.426;5.444;2023-09-18T12:59:50;100342.38;;;22.23;63.08
48614;BME280;34408;51.426;5.444;2023-09-18T13:02:20;100348.03;;;22.27;62.96